createdAt,value
2022-09-16T00:01:43.284Z,0.87
2022-09-16T00:04:11.369Z,0.70
2022-09-16T00:06:39.515Z,0.70
2022-09-16T00:09:07.573Z,0.67
2022-09-16T00:11:39.445Z,0.90
2022-09-16T00:14:07.703Z,0.80
2022-09-16T00:16:38.613Z,0.93
2022-09-16T00:19:10.490Z,0.70
2022-09-16T00:21:38.631Z,0.87
2022-09-16T00:24:13.369Z,0.80
2022-09-16T00:26:43.004Z,0.70
2022-09-16T00:29:14.408Z,0.63
2022-09-16T00:31:42.547Z,0.73
2022-09-16T00:34:10.715Z,0.70
2022-09-16T00:36:38.857Z,0.93
2022-09-16T00:39:06.963Z,0.60
2022-09-16T00:41:37.861Z,0.80
2022-09-16T00:44:28.201Z,0.70
2022-09-16T00:46:58.926Z,0.60
2022-09-16T00:49:29.746Z,1.10
2022-09-16T00:52:06.483Z,0.63
2022-09-16T00:54:36.700Z,0.50
2022-09-16T00:57:06.600Z,0.60
2022-09-16T00:59:42.850Z,0.73
2022-09-16T01:02:14.705Z,0.70
2022-09-16T01:04:47.939Z,0.50
2022-09-16T01:07:19.707Z,0.80
2022-09-16T01:09:47.828Z,0.40
2022-09-16T01:12:18.158Z,0.80
2022-09-16T01:14:55.613Z,0.40
2022-09-16T01:17:38.807Z,0.87
2022-09-16T01:21:03.005Z,0.50
2022-09-16T01:23:53.103Z,0.50
2022-09-16T01:26:48.970Z,0.70
2022-09-16T01:29:43.890Z,0.67
2022-09-16T01:32:17.501Z,0.70
2022-09-16T01:34:57.372Z,0.70
2022-09-16T01:37:32.185Z,0.90
2022-09-16T01:40:11.917Z,0.80
2022-09-16T01:42:48.396Z,0.57
2022-09-16T01:45:21.717Z,1.07
2022-09-16T01:47:59.257Z,0.87
2022-09-16T01:50:34.277Z,0.70
2022-09-16T01:53:11.423Z,1.10
2022-09-16T01:55:44.036Z,0.70
2022-09-16T01:58:19.535Z,0.73
2022-09-16T02:00:49.995Z,0.90
2022-09-16T02:03:23.583Z,1.00
2022-09-16T02:05:57.835Z,0.90
2022-09-16T02:08:31.757Z,0.73
2022-09-16T02:11:06.898Z,0.80
2022-09-16T02:13:41.205Z,1.00
2022-09-16T02:16:15.244Z,0.70
2022-09-16T02:18:49.063Z,0.70
2022-09-16T02:21:20.319Z,1.13
2022-09-16T02:23:52.451Z,0.97
2022-09-16T02:26:26.042Z,0.90
2022-09-16T02:28:57.536Z,0.70
2022-09-16T02:31:29.608Z,0.67
2022-09-16T02:34:03.090Z,0.70
2022-09-16T02:36:33.651Z,0.90
2022-09-16T02:39:07.257Z,0.80
2022-09-16T02:41:41.582Z,0.73
2022-09-16T02:44:15.292Z,1.00
2022-09-16T02:46:54.767Z,0.60
2022-09-16T02:49:31.299Z,0.80
2022-09-16T02:52:05.815Z,0.67
2022-09-16T02:54:38.148Z,0.70
2022-09-16T02:57:10.078Z,0.90
2022-09-16T02:59:38.944Z,1.00
2022-09-16T03:02:07.173Z,0.80
2022-09-16T03:04:37.243Z,0.70
2022-09-16T03:07:07.538Z,0.70
2022-09-16T03:09:41.739Z,1.13
2022-09-16T03:12:26.599Z,1.23
2022-09-16T03:15:29.557Z,0.67
2022-09-16T03:18:18.349Z,0.80
2022-09-16T03:20:56.095Z,1.30
2022-09-16T03:23:35.404Z,1.10
2022-09-16T03:26:11.292Z,1.00
2022-09-16T03:28:46.874Z,1.60
2022-09-16T03:31:22.575Z,1.30
2022-09-16T03:34:03.602Z,1.20
2022-09-16T03:36:40.179Z,1.00
2022-09-16T03:39:09.254Z,1.20
2022-09-16T03:41:37.729Z,1.73
2022-09-16T03:44:05.964Z,1.03
2022-09-16T03:46:34.123Z,1.57
2022-09-16T03:49:05.036Z,1.70
2022-09-16T03:51:36.720Z,1.47
2022-09-16T03:54:05.072Z,1.33
2022-09-16T03:56:33.211Z,1.53
2022-09-16T03:59:03.351Z,1.20
2022-09-16T04:01:31.488Z,1.50
2022-09-16T04:03:59.632Z,1.40
2022-09-16T04:06:28.045Z,1.80
2022-09-16T04:09:01.277Z,1.27
2022-09-16T04:11:32.653Z,1.53
2022-09-16T04:14:04.563Z,1.27
2022-09-16T04:16:35.360Z,1.50
2022-09-16T04:19:05.440Z,1.20
2022-09-16T04:21:35.991Z,1.00
2022-09-16T04:24:09.523Z,1.80
2022-09-16T04:26:40.938Z,1.27
2022-09-16T04:29:11.396Z,1.27
2022-09-16T04:31:39.534Z,1.30
2022-09-16T04:34:07.644Z,1.13
2022-09-16T04:36:35.809Z,1.60
2022-09-16T04:39:06.027Z,1.67
2022-09-16T04:41:34.247Z,1.30
2022-09-16T04:44:03.167Z,1.20
2022-09-16T04:46:33.907Z,1.67
2022-09-16T04:49:05.251Z,1.10
2022-09-16T04:51:35.542Z,1.20
2022-09-16T04:54:05.015Z,1.20
2022-09-16T04:56:34.136Z,1.50
2022-09-16T04:59:04.144Z,1.70
2022-09-16T05:01:34.591Z,2.20
2022-09-16T05:04:04.665Z,2.07
2022-09-16T05:06:36.495Z,1.90
2022-09-16T05:09:08.964Z,1.50
2022-09-16T05:11:39.035Z,1.20
2022-09-16T05:14:08.841Z,1.30
2022-09-16T05:16:37.068Z,1.30
2022-09-16T05:19:06.049Z,2.17
2022-09-16T05:21:37.102Z,1.70
2022-09-16T05:24:08.558Z,2.00
2022-09-16T05:26:42.515Z,1.00
2022-09-16T05:29:15.626Z,1.23
2022-09-16T05:31:47.212Z,1.23
2022-09-16T05:34:16.600Z,1.20
2022-09-16T05:36:47.503Z,1.10
2022-09-16T05:39:23.148Z,1.50
2022-09-16T05:41:55.465Z,1.27
2022-09-16T05:44:23.803Z,1.00
2022-09-16T05:46:52.036Z,0.90
2022-09-16T05:49:23.588Z,1.10
2022-09-16T05:54:36.560Z,1.30
2022-09-16T05:57:07.404Z,0.80
2022-09-16T05:59:35.589Z,1.07
2022-09-16T06:02:03.906Z,0.90
2022-09-16T06:04:32.002Z,0.90
2022-09-16T06:07:00.123Z,1.00
2022-09-16T06:09:30.275Z,0.73
2022-09-16T06:12:02.136Z,1.10
2022-09-16T06:14:32.981Z,1.00
2022-09-16T06:17:03.730Z,1.10
2022-09-16T06:19:31.854Z,0.87
2022-09-16T06:22:00.525Z,2.20
2022-09-16T06:24:28.718Z,1.40
2022-09-16T06:26:56.779Z,1.43
2022-09-16T06:29:28.636Z,1.23
2022-09-16T06:31:56.739Z,1.00
2022-09-16T06:34:26.970Z,1.20
2022-09-16T06:36:55.032Z,1.10
2022-09-16T06:39:24.005Z,1.00
2022-09-16T06:41:52.056Z,1.00
2022-09-16T06:44:20.154Z,0.80
2022-09-16T06:46:49.626Z,1.30
2022-09-16T06:49:17.707Z,1.20
2022-09-16T06:51:45.780Z,1.00
2022-09-16T06:54:13.884Z,2.07
2022-09-16T06:56:42.028Z,1.03
2022-09-16T06:59:11.380Z,1.33
2022-09-16T07:01:42.459Z,0.83
2022-09-16T07:04:13.357Z,1.10
2022-09-16T07:07:08.213Z,1.13
2022-09-16T07:09:34.222Z,0.90
2022-09-16T07:12:05.016Z,1.10
2022-09-16T07:14:33.423Z,0.80
2022-09-16T07:17:03.963Z,0.87
2022-09-16T07:19:33.525Z,0.97
2022-09-16T07:22:03.698Z,0.80
2022-09-16T07:24:34.188Z,0.80
2022-09-16T07:27:04.731Z,1.13
2022-09-16T07:29:33.413Z,0.80
2022-09-16T07:32:04.207Z,0.80
2022-09-16T07:34:33.697Z,0.93
2022-09-16T07:37:01.769Z,0.80
2022-09-16T07:39:32.447Z,0.70
2022-09-16T07:42:05.817Z,0.63
2022-09-16T07:44:36.503Z,1.53
2022-09-16T07:47:04.657Z,1.43
2022-09-16T07:49:34.130Z,1.00
2022-09-16T07:52:04.686Z,1.13
2022-09-16T07:54:33.014Z,0.83
2022-09-16T07:57:01.215Z,0.90
2022-09-16T07:59:30.063Z,0.90
2022-09-16T08:01:58.258Z,0.80
2022-09-16T08:04:28.549Z,0.83
2022-09-16T08:06:58.168Z,0.77
2022-09-16T08:09:37.903Z,0.90
2022-09-16T08:12:10.814Z,0.87
2022-09-16T08:14:39.382Z,1.13
2022-09-16T08:17:07.479Z,1.00
2022-09-16T08:19:35.627Z,1.20
2022-09-16T08:22:07.817Z,1.00
2022-09-16T08:24:36.034Z,1.10
2022-09-16T08:27:04.911Z,0.80
2022-09-16T08:29:33.319Z,0.80
2022-09-16T08:32:01.526Z,0.90
2022-09-16T08:34:29.650Z,1.10
2022-09-16T08:36:57.760Z,1.50
2022-09-16T08:39:27.419Z,1.13
2022-09-16T08:42:24.916Z,1.03
2022-09-16T08:45:02.017Z,0.83
2022-09-16T08:47:42.669Z,0.97
2022-09-16T08:50:17.223Z,1.10
2022-09-16T08:52:46.493Z,1.30
2022-09-16T08:55:20.105Z,1.20
2022-09-16T08:57:56.074Z,1.27
2022-09-16T09:00:26.724Z,0.97
2022-09-16T09:02:59.508Z,1.33
2022-09-16T09:05:40.154Z,1.10
2022-09-16T09:08:21.579Z,1.40
2022-09-16T09:10:53.618Z,1.10
2022-09-16T09:13:40.104Z,0.90
2022-09-16T09:16:19.544Z,1.40
2022-09-16T09:19:12.775Z,1.37
2022-09-16T09:21:50.617Z,1.10
2022-09-16T09:24:36.899Z,1.67
2022-09-16T09:27:15.623Z,1.37
2022-09-16T09:30:05.585Z,1.75
2022-09-16T09:32:56.663Z,1.07
2022-09-16T09:35:40.084Z,1.50
2022-09-16T09:38:35.022Z,1.10
2022-09-16T09:41:09.992Z,1.20
2022-09-16T09:43:44.559Z,1.30
2022-09-16T09:46:21.433Z,1.30
2022-09-16T09:48:57.730Z,1.10
2022-09-16T09:51:31.833Z,1.13
2022-09-16T09:54:07.092Z,1.27
2022-09-16T09:56:38.545Z,1.30
2022-09-16T09:59:20.320Z,1.50
2022-09-16T10:01:54.003Z,1.20
2022-09-16T10:04:24.601Z,1.53
2022-09-16T10:06:56.344Z,0.97
2022-09-16T10:09:25.672Z,0.83
2022-09-16T10:11:56.661Z,0.90
2022-09-16T10:14:30.632Z,1.00
2022-09-16T10:17:02.904Z,0.93
2022-09-16T10:19:33.193Z,1.50
2022-09-16T10:22:12.287Z,1.33
2022-09-16T10:24:42.019Z,1.10
2022-09-16T10:27:23.565Z,1.10
2022-09-16T10:30:06.554Z,1.50
2022-09-16T10:32:48.490Z,1.73
2022-09-16T10:35:22.116Z,1.10
2022-09-16T10:37:53.885Z,1.23
2022-09-16T10:40:24.117Z,1.20
2022-09-16T10:42:54.364Z,1.10
2022-09-16T10:45:28.972Z,1.23
2022-09-16T10:48:02.218Z,1.13
2022-09-16T10:50:33.163Z,0.83
2022-09-16T10:53:01.352Z,1.17
2022-09-16T10:55:32.854Z,1.57
2022-09-16T10:58:14.537Z,1.63
2022-09-16T11:00:57.602Z,1.17
2022-09-16T11:03:56.160Z,0.90
2022-09-16T11:06:40.417Z,1.50
2022-09-16T11:09:16.875Z,1.17
2022-09-16T11:11:58.396Z,1.00
2022-09-16T11:14:40.668Z,1.53
2022-09-16T11:17:27.688Z,1.27
2022-09-16T11:20:06.450Z,1.77
2022-09-16T11:22:41.906Z,2.20
2022-09-16T11:25:31.935Z,1.07
2022-09-16T11:28:18.415Z,1.20
2022-09-16T11:30:55.394Z,1.23
2022-09-16T11:33:32.781Z,1.37
2022-09-16T11:36:31.899Z,1.33
2022-09-16T11:39:22.788Z,0.97
2022-09-16T11:42:00.991Z,1.00
2022-09-16T11:44:39.729Z,1.20
2022-09-16T11:47:25.946Z,0.90
2022-09-16T11:50:12.169Z,1.37
2022-09-16T11:53:05.635Z,1.20
2022-09-16T11:55:48.800Z,1.07
2022-09-16T11:58:27.836Z,1.00
2022-09-16T12:00:59.266Z,1.43
2022-09-16T12:03:33.307Z,1.63
2022-09-16T12:06:09.077Z,1.70
2022-09-16T12:08:51.614Z,1.23
2022-09-16T12:11:25.336Z,1.57
2022-09-16T12:14:05.388Z,1.43
2022-09-16T12:16:42.729Z,1.20
2022-09-16T12:19:17.592Z,1.20
2022-09-16T12:21:57.744Z,1.10
2022-09-16T12:24:37.649Z,1.47
2022-09-16T12:27:12.307Z,0.93
2022-09-16T12:29:48.565Z,1.40
2022-09-16T12:32:22.108Z,1.50
2022-09-16T12:34:56.555Z,1.60
2022-09-16T12:37:36.236Z,1.80
2022-09-16T12:40:05.889Z,1.03
2022-09-16T12:42:56.003Z,1.20
2022-09-16T12:45:49.269Z,1.43
2022-09-16T12:48:41.350Z,1.20
2022-09-16T12:51:33.447Z,1.23
2022-09-16T12:54:30.387Z,1.80
2022-09-16T12:57:18.589Z,1.53
2022-09-16T13:00:13.345Z,1.00
2022-09-16T13:02:45.830Z,1.10
2022-09-16T13:05:22.322Z,1.40
2022-09-16T13:07:53.887Z,1.00
2022-09-16T13:10:53.872Z,1.20
2022-09-16T13:13:25.656Z,1.20
2022-09-16T13:15:57.928Z,1.17
2022-09-16T13:18:38.693Z,1.27
2022-09-16T13:21:13.291Z,1.57
2022-09-16T13:23:47.341Z,1.73
2022-09-16T13:26:18.979Z,1.27
2022-09-16T13:28:49.509Z,1.60
2022-09-16T13:31:20.466Z,1.73
2022-09-16T13:33:50.522Z,1.13
2022-09-16T13:36:32.718Z,1.33
2022-09-16T13:39:02.792Z,1.50
2022-09-16T13:41:37.400Z,1.63
2022-09-16T13:44:31.525Z,1.47
2022-09-16T13:47:17.545Z,1.50
2022-09-16T13:49:50.192Z,1.30
2022-09-16T13:52:24.970Z,1.37
2022-09-16T13:55:11.617Z,1.40
2022-09-16T13:58:01.814Z,1.20
2022-09-16T14:00:37.970Z,1.30
2022-09-16T14:03:34.238Z,1.40
2022-09-16T14:06:41.843Z,1.67
2022-09-16T14:09:25.795Z,1.30
2022-09-16T14:12:03.882Z,1.13
2022-09-16T14:14:53.168Z,1.23
2022-09-16T14:17:24.741Z,1.60
2022-09-16T14:19:56.572Z,1.13
2022-09-16T14:22:28.123Z,0.90
2022-09-16T14:25:06.317Z,1.17
2022-09-16T14:27:41.389Z,1.00
2022-09-16T14:30:18.335Z,1.13
2022-09-16T14:32:49.840Z,0.90
2022-09-16T14:35:21.890Z,0.67
2022-09-16T14:37:52.997Z,0.73
2022-09-16T14:40:24.247Z,0.70
2022-09-16T14:42:55.653Z,1.10
2022-09-16T14:45:25.453Z,1.60
2022-09-16T14:47:56.316Z,1.60
2022-09-16T14:50:27.660Z,0.83
2022-09-16T14:52:58.202Z,1.23
2022-09-16T14:55:31.199Z,1.47
2022-09-16T14:58:03.089Z,1.47
2022-09-16T15:00:39.081Z,0.90
2022-09-16T15:03:14.481Z,0.90
2022-09-16T15:05:48.267Z,0.97
2022-09-16T15:08:21.322Z,1.00
2022-09-16T15:10:54.577Z,1.07
2022-09-16T15:13:26.654Z,1.20
2022-09-16T15:15:58.865Z,1.40
2022-09-16T15:18:32.202Z,0.77
2022-09-16T15:21:09.435Z,1.20
2022-09-16T15:23:42.374Z,1.37
2022-09-16T15:26:16.250Z,1.20
2022-09-16T15:28:56.285Z,1.17
2022-09-16T15:31:32.118Z,1.00
2022-09-16T15:34:02.490Z,1.40
2022-09-16T15:36:36.614Z,1.27
2022-09-16T15:39:22.449Z,1.20
2022-09-16T15:41:50.800Z,1.53
2022-09-16T15:44:26.250Z,0.83
2022-09-16T15:46:55.850Z,1.13
2022-09-16T15:49:28.160Z,1.03
2022-09-16T15:51:56.881Z,1.63
2022-09-16T15:54:31.223Z,1.13
2022-09-16T15:57:04.289Z,1.07
2022-09-16T15:59:36.622Z,0.90
2022-09-16T16:02:22.697Z,1.40
2022-09-16T16:04:51.504Z,1.00
2022-09-16T16:07:41.498Z,1.53
2022-09-16T16:10:17.498Z,1.47
2022-09-16T16:12:47.900Z,1.30
2022-09-16T16:15:17.537Z,1.33
2022-09-16T16:17:48.335Z,1.27
2022-09-16T16:20:18.391Z,1.20
2022-09-16T16:22:49.334Z,1.40
2022-09-16T16:25:18.273Z,1.27
2022-09-16T16:27:46.728Z,1.30
2022-09-16T16:30:15.001Z,0.83
2022-09-16T16:32:43.229Z,1.30
2022-09-16T16:35:15.772Z,1.37
2022-09-16T16:37:46.891Z,2.00
2022-09-16T16:40:16.560Z,1.50
2022-09-16T16:42:45.110Z,2.00
2022-09-16T16:45:14.326Z,1.83
2022-09-16T16:47:46.314Z,2.17
2022-09-16T16:50:18.462Z,1.77
2022-09-16T16:52:50.753Z,1.13
2022-09-16T16:55:21.268Z,2.30
2022-09-16T16:57:49.437Z,1.93
2022-09-16T17:00:18.813Z,2.33
2022-09-16T17:02:47.038Z,2.00
2022-09-16T17:05:15.248Z,1.80
2022-09-16T17:07:44.755Z,1.87
2022-09-16T17:10:15.031Z,2.07
2022-09-16T17:12:43.119Z,1.87
2022-09-16T17:15:13.600Z,1.90
2022-09-16T17:17:44.336Z,1.90
2022-09-16T17:20:12.479Z,2.17
2022-09-16T17:22:40.992Z,2.10
2022-09-16T17:25:12.625Z,2.17
2022-09-16T17:27:40.841Z,1.97
2022-09-16T17:30:10.007Z,2.60
2022-09-16T17:32:38.181Z,2.87
2022-09-16T17:35:07.107Z,1.87
2022-09-16T17:37:38.653Z,2.23
2022-09-16T17:40:09.586Z,1.40
2022-09-16T17:42:41.573Z,1.93
2022-09-16T17:45:10.232Z,1.70
2022-09-16T17:47:38.551Z,1.50
2022-09-16T17:50:07.658Z,1.80
2022-09-16T17:52:35.767Z,2.90
2022-09-16T17:55:03.940Z,1.30
2022-09-16T17:57:33.454Z,1.90
2022-09-16T18:00:03.384Z,1.80
2022-09-16T18:02:40.387Z,1.97
2022-09-16T18:05:09.468Z,1.77
2022-09-16T18:07:40.635Z,1.50
2022-09-16T18:10:09.383Z,1.70
2022-09-16T18:12:37.501Z,1.40
2022-09-16T18:15:10.736Z,1.70
2022-09-16T18:17:38.849Z,1.00
2022-09-16T18:20:11.040Z,1.17
2022-09-16T18:22:39.316Z,1.17
2022-09-16T18:25:07.800Z,1.27
2022-09-16T18:27:43.322Z,0.97
2022-09-16T18:30:17.698Z,1.00
2022-09-16T18:32:45.876Z,1.07
2022-09-16T18:35:16.713Z,1.30
2022-09-16T18:37:44.852Z,1.17
2022-09-16T18:40:15.734Z,1.00
2022-09-16T18:42:44.005Z,1.10
2022-09-16T18:45:15.979Z,1.20
2022-09-16T18:47:46.185Z,1.00
2022-09-16T18:50:15.248Z,0.97
2022-09-16T18:52:43.477Z,1.20
2022-09-16T18:55:12.008Z,1.10
2022-09-16T18:57:43.411Z,1.53
2022-09-16T19:00:15.581Z,0.90
2022-09-16T19:02:46.128Z,1.37
2022-09-16T19:05:18.963Z,0.97
2022-09-16T19:07:49.447Z,0.83
2022-09-16T19:10:20.090Z,1.13
2022-09-16T19:12:50.768Z,1.10
2022-09-16T19:15:22.655Z,1.27
2022-09-16T19:17:53.210Z,1.00
2022-09-16T19:20:21.555Z,1.07
2022-09-16T19:22:52.581Z,1.30
2022-09-16T19:25:20.818Z,0.90
2022-09-16T19:27:48.974Z,1.13
2022-09-16T19:30:17.211Z,1.20
2022-09-16T19:32:47.143Z,0.90
2022-09-16T19:35:16.657Z,1.17
2022-09-16T19:37:44.874Z,1.50
2022-09-16T19:40:15.553Z,1.33
2022-09-16T19:42:46.320Z,1.27
2022-09-16T19:45:14.774Z,1.70
2022-09-16T19:47:42.977Z,1.73
2022-09-16T19:50:12.791Z,1.40
2022-09-16T19:52:41.337Z,1.33
2022-09-16T19:55:11.852Z,1.20
2022-09-16T19:57:42.295Z,1.10
2022-09-16T20:00:17.092Z,2.03
2022-09-16T20:02:48.086Z,2.03
2022-09-16T20:05:17.773Z,1.97
2022-09-16T20:07:45.925Z,1.83
2022-09-16T20:10:14.147Z,1.40
2022-09-16T20:12:42.279Z,1.60
2022-09-16T20:15:11.023Z,2.07
2022-09-16T20:17:39.203Z,1.50
2022-09-16T20:20:08.573Z,1.43
2022-09-16T20:22:38.193Z,1.70
2022-09-16T20:25:22.410Z,1.20
2022-09-16T20:27:51.752Z,1.70
2022-09-16T20:30:19.910Z,1.37
2022-09-16T20:32:48.182Z,1.40
2022-09-16T20:35:16.459Z,1.80
2022-09-16T20:37:48.099Z,1.80
2022-09-16T20:40:16.426Z,1.77
2022-09-16T20:42:44.602Z,1.30
2022-09-16T20:45:12.863Z,1.67
2022-09-16T20:47:40.950Z,1.57
2022-09-16T20:50:10.253Z,1.40
2022-09-16T20:52:40.663Z,1.50
2022-09-16T20:55:10.881Z,1.70
2022-09-16T20:57:39.100Z,1.20
2022-09-16T21:00:10.965Z,1.60
2022-09-16T21:02:39.178Z,2.00
2022-09-16T21:05:10.867Z,1.37
2022-09-16T21:07:41.804Z,1.40
2022-09-16T21:10:11.785Z,1.90
2022-09-16T21:12:42.241Z,1.60
2022-09-16T21:15:11.220Z,1.80
2022-09-16T21:17:39.396Z,1.67
2022-09-16T21:20:10.749Z,1.40
2022-09-16T21:22:39.199Z,1.10
2022-09-16T21:25:11.416Z,1.13
2022-09-16T21:27:39.581Z,1.17
2022-09-16T21:30:12.178Z,1.30
2022-09-16T21:32:40.344Z,2.90
2022-09-16T21:35:09.088Z,1.00
2022-09-16T21:37:37.289Z,1.50
2022-09-16T21:40:06.378Z,1.10
2022-09-16T21:42:36.422Z,1.00
2022-09-16T21:45:04.888Z,1.27
2022-09-16T21:47:33.189Z,1.90
2022-09-16T21:50:05.102Z,1.43
2022-09-16T21:52:35.382Z,1.30
2022-09-16T21:55:03.527Z,1.80
2022-09-16T21:57:31.859Z,1.23
2022-09-16T22:00:01.369Z,1.13
2022-09-16T22:02:37.594Z,1.27
2022-09-16T22:05:06.636Z,1.40
2022-09-16T22:07:34.835Z,1.30
2022-09-16T22:10:02.971Z,1.53
2022-09-16T22:12:31.133Z,1.30
2022-09-16T22:14:59.261Z,1.40
2022-09-16T22:17:29.075Z,1.90
2022-09-16T22:19:59.844Z,2.03
2022-09-16T22:22:28.175Z,1.40
2022-09-16T22:24:56.324Z,1.10
2022-09-16T22:27:24.539Z,1.40
2022-09-16T22:29:52.735Z,1.60
2022-09-16T22:32:22.999Z,1.50
2022-09-16T22:34:52.551Z,1.17
2022-09-16T22:37:20.692Z,1.40
2022-09-16T22:39:48.870Z,1.33
2022-09-16T22:42:17.008Z,1.13
2022-09-16T22:44:45.197Z,1.03
2022-09-16T22:47:13.351Z,1.73
2022-09-16T22:49:41.443Z,1.57
2022-09-16T22:52:10.923Z,1.33
2022-09-16T22:54:39.049Z,1.20
2022-09-16T22:57:07.526Z,1.57
2022-09-16T22:59:35.695Z,1.90
2022-09-16T23:02:03.843Z,1.20
2022-09-16T23:04:32.109Z,1.60
2022-09-16T23:07:02.697Z,1.20
2022-09-16T23:09:32.262Z,1.33
2022-09-16T23:12:03.262Z,1.37
2022-09-16T23:14:31.910Z,1.43
2022-09-16T23:17:02.048Z,1.80
2022-09-16T23:19:30.249Z,1.90
2022-09-16T23:22:00.900Z,1.70
2022-09-16T23:24:32.730Z,1.57
2022-09-16T23:27:00.873Z,1.50
2022-09-16T23:29:31.308Z,3.03
2022-09-16T23:32:02.604Z,1.30
2022-09-16T23:34:30.775Z,1.40
2022-09-16T23:36:58.932Z,1.80
2022-09-16T23:39:27.231Z,1.40
2022-09-16T23:41:58.877Z,1.83
2022-09-16T23:44:26.970Z,2.20
2022-09-16T23:46:55.178Z,2.33
2022-09-16T23:49:23.391Z,2.20
2022-09-16T23:51:53.683Z,1.73
2022-09-16T23:54:24.338Z,2.20
2022-09-16T23:56:52.430Z,1.90
2022-09-16T23:59:23.919Z,1.90
